Kezdőlap
METAR-TAF:

METAR-TAF

Repülőterek :

Samsun, Törökország

földrajzi szélesség: 41-15-15N, földrajzi hosszúság: 036-34-03E, magasság: 5 m

Jelenlegi meteorológiai megfigyelések

A jelentés 8 órával és 36 perccel ezelõtt készült, 04:50 UTC
Délnyugati szél 3 kt
Hőmérséklet 24°C
Páratartalom 69%
Légköri nyomás 1012 hPa
Látótávolság 10 km, vagy több
Kevés felhő 3600 lábon
Szakadozott felhőzet 10000 lábon

METAR: LTFH 210450Z 22003KT 9999 FEW036 BKN100 24/18 Q1012 NOSIG

Idő: 16:26 (13:26 UTC)

Előrejelzés

A jelentés 8 órával és 46 perccel ezelõtt készült, 04:40 UTC
Az előrejelzés 21-én 06 óra UTC és 21-én 15 óra UTC között érvényes
Északnyugati szél 8 kt
Látótávolság 10 km, vagy több
Kevés felhő 3600 lábon
Szakadozott felhőzet 10000 lábon

TAF: LTFH 210440Z 2106/2115 31008KT 9999 FEW036 BKN100

Meteorológiai megfigyelések és előrejelzések több, mint 4000 repülőtéren (METAR és TAF jelentéseket).

A térképen piros és sárga pontok jelzik az elérhető meteorológiai állomásokat.

Mozgassa az egeret a pont fölött, hogy megjelenjen az állomás neve.

Azután kattintson az időjárási megfigyelések és előrejelzések megtekintéséhez.

A térkép megváltoztatása: kattintson a fekete keresztel jelölt zöld gombra ráközelítéshez, a vonallal jelölt zöld gombra távolításhoz, vagy a zöld nyilakra a szomszédos térképek eléréséhez.


METAR-TAF: